sensor_id;sensor_type;location;lat;lon;timestamp;pressure;altitude;pressure_sealevel;temperature;humidity
44531;BME280;30240;47.418;0.700;2023-03-14T00:00:06;98562.87231445312;;;10.33;89.96
44531;BME280;30240;47.418;0.700;2023-03-14T00:02:28;98564.70336914062;;;10.26;90.15
44531;BME280;30240;47.418;0.700;2023-03-14T00:04:54;98568.98193359375;;;10.25;90.59
44531;BME280;30240;47.418;0.700;2023-03-14T00:07:19;98551.89819335938;;;10.19;90.85
44531;BME280;30240;47.418;0.700;2023-03-14T00:09:44;98549.46899414062;;;10.09;91.24
44531;BME280;30240;47.418;0.700;2023-03-14T00:12:09;98549.46899414062;;;10.09;91.24
44531;BME280;30240;47.418;0.700;2023-03-14T00:14:33;98545.34912109375;;;10.03;91.7
44531;BME280;30240;47.418;0.700;2023-03-14T00:16:58;98557.50732421875;;;10.09;91.6
44531;BME280;30240;47.418;0.700;2023-03-14T00:19:23;98555.615234375;;;10.12;91.59
44531;BME280;30240;47.418;0.700;2023-03-14T00:21:49;98540.73486328125;;;10.1;91.44
44531;BME280;30240;47.418;0.700;2023-03-14T00:24:14;98543.95141601562;;;10.06;91.48
44531;BME280;30240;47.418;0.700;2023-03-14T00:26:39;98543.95141601562;;;10.06;91.48
44531;BME280;30240;47.418;0.700;2023-03-14T00:29:04;98539.34326171875;;;10.08;91.54
44531;BME280;30240;47.418;0.700;2023-03-14T00:31:29;98535.12573242188;;;10.09;91.39
44531;BME280;30240;47.418;0.700;2023-03-14T00:33:54;98556.10961914062;;;10.1;91.04
44531;BME280;30240;47.418;0.700;2023-03-14T00:36:19;98539.45922851562;;;10.13;91.25
44531;BME280;30240;47.418;0.700;2023-03-14T00:38:45;98539.45922851562;;;10.13;91.25
44531;BME280;30240;47.418;0.700;2023-03-14T00:41:10;98540.8447265625;;;10.15;91.31
44531;BME280;30240;47.418;0.700;2023-03-14T00:43:34;98534.619140625;;;10.1;91.39
44531;BME280;30240;47.418;0.700;2023-03-14T00:46:00;98540.09399414062;;;10.13;91.72
44531;BME280;30240;47.418;0.700;2023-03-14T00:48:24;98533.11157226562;;;10.08;91.74
44531;BME280;30240;47.418;0.700;2023-03-14T00:50:49;98533.11157226562;;;10.08;91.74
44531;BME280;30240;47.418;0.700;2023-03-14T00:53:14;98532.5439453125;;;10.1;91.67
44531;BME280;30240;47.418;0.700;2023-03-14T00:55:39;98545.40405273438;;;10.09;91.78
44531;BME280;30240;47.418;0.700;2023-03-14T00:58:04;98532.4462890625;;;10.1;91.96
44531;BME280;30240;47.418;0.700;2023-03-14T01:00:29;98541.51000976562;;;10.06;92.37
44531;BME280;30240;47.418;0.700;2023-03-14T01:02:54;98541.51000976562;;;10.06;92.37
44531;BME280;30240;47.418;0.700;2023-03-14T01:05:19;98535.60791015625;;;10.02;92.72
44531;BME280;30240;47.418;0.700;2023-03-14T01:07:43;98543.32885742188;;;10.01;92.75
44531;BME280;30240;47.418;0.700;2023-03-14T01:10:09;98551.89208984375;;;10.06;92.89
44531;BME280;30240;47.418;0.700;2023-03-14T01:12:33;98542.48657226562;;;10.02;93.16
44531;BME280;30240;47.418;0.700;2023-03-14T01:14:58;98542.48657226562;;;10.02;93.16
44531;BME280;30240;47.418;0.700;2023-03-14T01:17:24;98535.32104492188;;;10.02;93.42
44531;BME280;30240;47.418;0.700;2023-03-14T01:19:48;98538.72680664062;;;10.02;93.37
44531;BME280;30240;47.418;0.700;2023-03-14T01:22:13;98539.43481445312;;;10.01;93.6
44531;BME280;30240;47.418;0.700;2023-03-14T01:24:38;98543.2373046875;;;10.01;93.73
44531;BME280;30240;47.418;0.700;2023-03-14T01:27:03;98543.2373046875;;;10.01;93.73
44531;BME280;30240;47.418;0.700;2023-03-14T01:29:29;98544.11010742188;;;10.01;93.8
44531;BME280;30240;47.418;0.700;2023-03-14T01:31:54;98544.67163085938;;;9.99;93.9
44531;BME280;30240;47.418;0.700;2023-03-14T01:34:18;98543.64013671875;;;9.98;94.03
44531;BME280;30240;47.418;0.700;2023-03-14T01:36:43;98547.34497070312;;;10.02;94.05
44531;BME280;30240;47.418;0.700;2023-03-14T01:39:08;98547.34497070312;;;10.02;94.05
44531;BME280;30240;47.418;0.700;2023-03-14T01:41:33;98544.64111328125;;;10.03;94.01
44531;BME280;30240;47.418;0.700;2023-03-14T01:43:59;98538.3544921875;;;9.98;94.27
44531;BME280;30240;47.418;0.700;2023-03-14T01:46:26;98552.30712890625;;;10.02;94.26
44531;BME280;30240;47.418;0.700;2023-03-14T01:48:54;98546.32568359375;;;10.02;94.29
44531;BME280;30240;47.418;0.700;2023-03-14T01:51:16;98551.9775390625;;;10.01;94.18
44531;BME280;30240;47.418;0.700;2023-03-14T01:53:39;98551.9775390625;;;10.01;94.18
44531;BME280;30240;47.418;0.700;2023-03-14T01:56:04;98558.89892578125;;;10.06;93.84
44531;BME280;30240;47.418;0.700;2023-03-14T01:58:31;98553.6376953125;;;10.09;93.86
44531;BME280;30240;47.418;0.700;2023-03-14T02:00:55;98552.84423828125;;;10.13;94.06
44531;BME280;30240;47.418;0.700;2023-03-14T02:03:20;98560.34545898438;;;10.15;93.83
44531;BME280;30240;47.418;0.700;2023-03-14T02:05:44;98560.34545898438;;;10.15;93.83
44531;BME280;30240;47.418;0.700;2023-03-14T02:08:11;98556.48193359375;;;10.15;93.9
44531;BME280;30240;47.418;0.700;2023-03-14T02:10:37;98556.55517578125;;;10.12;94.1
44531;BME280;30240;47.418;0.700;2023-03-14T02:13:01;98564.34326171875;;;10.13;94.11
44531;BME280;30240;47.418;0.700;2023-03-14T02:15:24;98575.13427734375;;;10.09;94.44
44531;BME280;30240;47.418;0.700;2023-03-14T02:17:49;98575.13427734375;;;10.09;94.44
44531;BME280;30240;47.418;0.700;2023-03-14T02:20:21;98583.3740234375;;;10.09;94.54
44531;BME280;30240;47.418;0.700;2023-03-14T02:20:27;98583.3740234375;;;10.09;94.54
44531;BME280;30240;47.418;0.700;2023-03-14T02:22:40;98587.48168945312;;;10.15;94.25
44531;BME280;30240;47.418;0.700;2023-03-14T02:25:08;98591.85791015625;;;10.19;93.7
44531;BME280;30240;47.418;0.700;2023-03-14T02:27:29;98592.7734375;;;10.26;93.09
44531;BME280;30240;47.418;0.700;2023-03-14T02:29:56;98592.7734375;;;10.26;93.09
44531;BME280;30240;47.418;0.700;2023-03-14T02:32:20;98590.71044921875;;;10.34;92.52
44531;BME280;30240;47.418;0.700;2023-03-14T02:34:45;98592.21801757812;;;10.37;92.39
44531;BME280;30240;47.418;0.700;2023-03-14T02:37:09;98600.97045898438;;;10.36;92.5
44531;BME280;30240;47.418;0.700;2023-03-14T02:39:36;98605.517578125;;;10.25;93.08
44531;BME280;30240;47.418;0.700;2023-03-14T02:41:58;98605.517578125;;;10.25;93.08
44531;BME280;30240;47.418;0.700;2023-03-14T02:44:24;98611.81030273438;;;10.28;93.55
44531;BME280;30240;47.418;0.700;2023-03-14T02:46:48;98617.7001953125;;;10.2;93.71
44531;BME280;30240;47.418;0.700;2023-03-14T02:49:14;98620.03173828125;;;10.23;93.79
44531;BME280;30240;47.418;0.700;2023-03-14T02:51:39;98621.64306640625;;;10.28;93.63
44531;BME280;30240;47.418;0.700;2023-03-14T02:54:04;98621.64306640625;;;10.28;93.63
44531;BME280;30240;47.418;0.700;2023-03-14T02:56:28;98626.67236328125;;;10.28;93.62
44531;BME280;30240;47.418;0.700;2023-03-14T02:58:53;98635.15625;;;10.28;93.81
44531;BME280;30240;47.418;0.700;2023-03-14T03:01:19;98631.75659179688;;;10.29;93.73
44531;BME280;30240;47.418;0.700;2023-03-14T03:03:43;98644.15893554688;;;10.28;93.87
44531;BME280;30240;47.418;0.700;2023-03-14T03:06:08;98644.15893554688;;;10.28;93.87
44531;BME280;30240;47.418;0.700;2023-03-14T03:08:34;98656.39038085938;;;10.28;93.86
44531;BME280;30240;47.418;0.700;2023-03-14T03:10:59;98645.08666992188;;;10.33;93.64
44531;BME280;30240;47.418;0.700;2023-03-14T03:13:24;98669.32983398438;;;10.33;93.72
44531;BME280;30240;47.418;0.700;2023-03-14T03:15:49;98665.7958984375;;;10.3;93.85
44531;BME280;30240;47.418;0.700;2023-03-14T03:18:14;98665.7958984375;;;10.3;93.85
44531;BME280;30240;47.418;0.700;2023-03-14T03:20:38;98685.35766601562;;;10.34;93.48
44531;BME280;30240;47.418;0.700;2023-03-14T03:23:04;98681.14624023438;;;10.39;93.23
44531;BME280;30240;47.418;0.700;2023-03-14T03:25:29;98694.53735351562;;;10.4;92.88
44531;BME280;30240;47.418;0.700;2023-03-14T03:27:54;98710.04638671875;;;10.44;92.62
44531;BME280;30240;47.418;0.700;2023-03-14T03:30:19;98717.43774414062;;;10.4;93.02
44531;BME280;30240;47.418;0.700;2023-03-14T03:32:44;98717.43774414062;;;10.4;93.02
44531;BME280;30240;47.418;0.700;2023-03-14T03:35:09;98723.27880859375;;;10.41;91.58
44531;BME280;30240;47.418;0.700;2023-03-14T03:37:34;98761.95068359375;;;10.43;89.98
44531;BME280;30240;47.418;0.700;2023-03-14T03:39:58;98747.79663085938;;;10.32;88.78
44531;BME280;30240;47.418;0.700;2023-03-14T03:42:23;98767.60864257812;;;10.22;86.29
44531;BME280;30240;47.418;0.700;2023-03-14T03:44:48;98767.60864257812;;;10.22;86.29
44531;BME280;30240;47.418;0.700;2023-03-14T03:47:14;98778.62548828125;;;10.13;84.27
44531;BME280;30240;47.418;0.700;2023-03-14T03:49:39;98757.19604492188;;;10.05;84.56
44531;BME280;30240;47.418;0.700;2023-03-14T03:52:04;98802.7587890625;;;10.09;83.65
44531;BME280;30240;47.418;0.700;2023-03-14T03:54:28;98804.4921875;;;9.99;84.42
44531;BME280;30240;47.418;0.700;2023-03-14T03:56:54;98804.4921875;;;9.99;84.42
44531;BME280;30240;47.418;0.700;2023-03-14T03:59:18;98831.18896484375;;;9.87;84.89
44531;BME280;30240;47.418;0.700;2023-03-14T04:01:43;98832.11059570312;;;9.81;85.39
44531;BME280;30240;47.418;0.700;2023-03-14T04:04:09;98841.68090820312;;;9.78;85.63
44531;BME280;30240;47.418;0.700;2023-03-14T04:06:33;98879.15649414062;;;9.74;85.87
44531;BME280;30240;47.418;0.700;2023-03-14T04:08:58;98879.15649414062;;;9.74;85.87
44531;BME280;30240;47.418;0.700;2023-03-14T04:11:24;98872.7783203125;;;9.64;85.49
44531;BME280;30240;47.418;0.700;2023-03-14T04:13:48;98866.60766601562;;;9.6;84.65
44531;BME280;30240;47.418;0.700;2023-03-14T04:16:16;98870.0927734375;;;9.56;84.36
44531;BME280;30240;47.418;0.700;2023-03-14T04:18:38;98860.6689453125;;;9.63;82.57
44531;BME280;30240;47.418;0.700;2023-03-14T04:21:04;98860.6689453125;;;9.63;82.57
44531;BME280;30240;47.418;0.700;2023-03-14T04:23:28;98899.51782226562;;;9.49;83.5
44531;BME280;30240;47.418;0.700;2023-03-14T04:25:53;98964.70336914062;;;9.51;83.01
44531;BME280;30240;47.418;0.700;2023-03-14T04:28:19;98928.64990234375;;;9.39;83.48
44531;BME280;30240;47.418;0.700;2023-03-14T04:30:44;98941.8701171875;;;9.28;84.15
44531;BME280;30240;47.418;0.700;2023-03-14T04:33:09;98941.8701171875;;;9.28;84.15
44531;BME280;30240;47.418;0.700;2023-03-14T04:35:34;98956.54907226562;;;9.24;84.48
44531;BME280;30240;47.418;0.700;2023-03-14T04:37:58;98966.9677734375;;;9.21;84.47
44531;BME280;30240;47.418;0.700;2023-03-14T04:40:23;98995.97778320312;;;9.14;84.83
44531;BME280;30240;47.418;0.700;2023-03-14T04:42:48;98992.15698242188;;;9.12;84.46
44531;BME280;30240;47.418;0.700;2023-03-14T04:45:13;98992.15698242188;;;9.12;84.46
44531;BME280;30240;47.418;0.700;2023-03-14T04:47:38;99011.41967773438;;;9.15;83.21
44531;BME280;30240;47.418;0.700;2023-03-14T04:50:04;99027.03857421875;;;9.08;83.24
44531;BME280;30240;47.418;0.700;2023-03-14T04:52:29;99025.31127929688;;;9.1;82.57
44531;BME280;30240;47.418;0.700;2023-03-14T04:54:53;99039.36767578125;;;9.05;82.24
44531;BME280;30240;47.418;0.700;2023-03-14T04:57:18;99033.0810546875;;;9.04;82.05
44531;BME280;30240;47.418;0.700;2023-03-14T04:59:43;99033.0810546875;;;9.04;82.05
44531;BME280;30240;47.418;0.700;2023-03-14T05:02:08;99052.81372070312;;;8.87;83.11
44531;BME280;30240;47.418;0.700;2023-03-14T05:04:33;99057.45239257812;;;8.83;82.54
44531;BME280;30240;47.418;0.700;2023-03-14T05:06:58;99074.10888671875;;;8.81;82.54
44531;BME280;30240;47.418;0.700;2023-03-14T05:09:24;99070.5810546875;;;8.73;83.02
44531;BME280;30240;47.418;0.700;2023-03-14T05:11:48;99070.5810546875;;;8.73;83.02
44531;BME280;30240;47.418;0.700;2023-03-14T05:14:13;99084.04541015625;;;8.7;83.2
44531;BME280;30240;47.418;0.700;2023-03-14T05:16:38;99095.263671875;;;8.72;82.93
44531;BME280;30240;47.418;0.700;2023-03-14T05:19:03;99110.07690429688;;;8.7;82.49
44531;BME280;30240;47.418;0.700;2023-03-14T05:21:28;99134.12475585938;;;8.8;81.18
44531;BME280;30240;47.418;0.700;2023-03-14T05:23:53;99134.12475585938;;;8.8;81.18
44531;BME280;30240;47.418;0.700;2023-03-14T05:26:19;99129.0283203125;;;8.66;82.22
44531;BME280;30240;47.418;0.700;2023-03-14T05:28:43;99135.10131835938;;;8.57;82.65
44531;BME280;30240;47.418;0.700;2023-03-14T05:31:09;99138.720703125;;;8.6;82.35
44531;BME280;30240;47.418;0.700;2023-03-14T05:33:34;99155.93872070312;;;8.67;81.85
44531;BME280;30240;47.418;0.700;2023-03-14T05:35:58;99155.93872070312;;;8.67;81.85
44531;BME280;30240;47.418;0.700;2023-03-14T05:38:23;99155.94482421875;;;8.65;81.92
44531;BME280;30240;47.418;0.700;2023-03-14T05:40:48;99178.84521484375;;;8.59;82.31
44531;BME280;30240;47.418;0.700;2023-03-14T05:43:14;99190.8447265625;;;8.57;82.55
44531;BME280;30240;47.418;0.700;2023-03-14T05:45:39;99196.96044921875;;;8.52;82.87
44531;BME280;30240;47.418;0.700;2023-03-14T05:48:04;99196.96044921875;;;8.52;82.87
44531;BME280;30240;47.418;0.700;2023-03-14T05:50:28;99213.232421875;;;8.5;83.48
44531;BME280;30240;47.418;0.700;2023-03-14T05:52:53;99224.06005859375;;;8.48;83.73
44531;BME280;30240;47.418;0.700;2023-03-14T05:55:18;99227.45361328125;;;8.52;83.75
44531;BME280;30240;47.418;0.700;2023-03-14T05:57:43;99242.0654296875;;;8.5;84.08
44531;BME280;30240;47.418;0.700;2023-03-14T06:00:09;99242.0654296875;;;8.5;84.08
44531;BME280;30240;47.418;0.700;2023-03-14T06:02:33;99250.3173828125;;;8.45;84.35
44531;BME280;30240;47.418;0.700;2023-03-14T06:04:58;99255.04760742188;;;8.44;84.25
44531;BME280;30240;47.418;0.700;2023-03-14T06:07:23;99260.107421875;;;8.42;84.19
44531;BME280;30240;47.418;0.700;2023-03-14T06:09:48;99269.06127929688;;;8.44;84.19
44531;BME280;30240;47.418;0.700;2023-03-14T06:12:13;99269.06127929688;;;8.44;84.19
44531;BME280;30240;47.418;0.700;2023-03-14T06:14:38;99277.5146484375;;;8.42;84.07
44531;BME280;30240;47.418;0.700;2023-03-14T06:17:03;99282.41577148438;;;8.44;84.24
44531;BME280;30240;47.418;0.700;2023-03-14T06:19:28;99295.4345703125;;;8.46;84.41
44531;BME280;30240;47.418;0.700;2023-03-14T06:21:53;99294.2626953125;;;8.31;85.02
44531;BME280;30240;47.418;0.700;2023-03-14T06:24:18;99294.2626953125;;;8.31;85.02
44531;BME280;30240;47.418;0.700;2023-03-14T06:26:44;99302.294921875;;;8.2;85.99
44531;BME280;30240;47.418;0.700;2023-03-14T06:29:09;99317.27294921875;;;8.15;86.37
44531;BME280;30240;47.418;0.700;2023-03-14T06:31:33;99318.10302734375;;;8.1;86.42
44531;BME280;30240;47.418;0.700;2023-03-14T06:33:58;99322.45483398438;;;8.14;86.11
44531;BME280;30240;47.418;0.700;2023-03-14T06:36:24;99345.08666992188;;;8.13;86.36
44531;BME280;30240;47.418;0.700;2023-03-14T06:38:48;99345.08666992188;;;8.13;86.36
44531;BME280;30240;47.418;0.700;2023-03-14T06:41:14;99349.63989257812;;;8.11;86.37
44531;BME280;30240;47.418;0.700;2023-03-14T06:43:38;99365.0146484375;;;8.08;86.27
44531;BME280;30240;47.418;0.700;2023-03-14T06:46:04;99389.06860351562;;;8.1;86.38
44531;BME280;30240;47.418;0.700;2023-03-14T06:48:28;99387.939453125;;;8.04;86.49
44531;BME280;30240;47.418;0.700;2023-03-14T06:50:53;99387.939453125;;;8.04;86.49
44531;BME280;30240;47.418;0.700;2023-03-14T06:53:19;99402.6123046875;;;8.06;86.5
44531;BME280;30240;47.418;0.700;2023-03-14T06:55:43;99411.16333007812;;;7.98;86.83
44531;BME280;30240;47.418;0.700;2023-03-14T06:58:08;99415.2099609375;;;8.01;87.02
44531;BME280;30240;47.418;0.700;2023-03-14T07:00:33;99419.47021484375;;;8.1;87.07
44531;BME280;30240;47.418;0.700;2023-03-14T07:02:58;99419.47021484375;;;8.1;87.07
44531;BME280;30240;47.418;0.700;2023-03-14T07:05:23;99421.44775390625;;;8.07;87.34
44531;BME280;30240;47.418;0.700;2023-03-14T07:07:49;99426.806640625;;;7.98;86.39
44531;BME280;30240;47.418;0.700;2023-03-14T07:10:13;99433.154296875;;;8.03;86.31
44531;BME280;30240;47.418;0.700;2023-03-14T07:12:38;99433.26416015625;;;8.08;85.94
44531;BME280;30240;47.418;0.700;2023-03-14T07:15:04;99433.26416015625;;;8.08;85.94
44531;BME280;30240;47.418;0.700;2023-03-14T07:17:28;99438.525390625;;;8.14;85.63
44531;BME280;30240;47.418;0.700;2023-03-14T07:19:56;99462.87231445312;;;8.18;85.75
44531;BME280;30240;47.418;0.700;2023-03-14T07:22:18;99462.86010742188;;;8.28;84.75
44531;BME280;30240;47.418;0.700;2023-03-14T07:24:43;99476.86157226562;;;8.24;84.72
44531;BME280;30240;47.418;0.700;2023-03-14T07:27:08;99476.86157226562;;;8.24;84.72
44531;BME280;30240;47.418;0.700;2023-03-14T07:29:33;99473.49243164062;;;8.2;85.36
44531;BME280;30240;47.418;0.700;2023-03-14T07:31:58;99481.28051757812;;;8.18;85.11
44531;BME280;30240;47.418;0.700;2023-03-14T07:34:23;99477.54516601562;;;8.56;84.63
44531;BME280;30240;47.418;0.700;2023-03-14T07:36:48;99468.81103515625;;;8.72;84.09
44531;BME280;30240;47.418;0.700;2023-03-14T07:39:13;99468.81103515625;;;8.72;84.09
44531;BME280;30240;47.418;0.700;2023-03-14T07:41:38;99454.8583984375;;;8.84;83.03
44531;BME280;30240;47.418;0.700;2023-03-14T07:44:03;99442.138671875;;;9.05;82.37
44531;BME280;30240;47.418;0.700;2023-03-14T07:46:28;99434.32006835938;;;8.63;82.53
44531;BME280;30240;47.418;0.700;2023-03-14T07:48:53;99461.02294921875;;;8.62;83.12
44531;BME280;30240;47.418;0.700;2023-03-14T07:51:18;99461.02294921875;;;8.62;83.12
44531;BME280;30240;47.418;0.700;2023-03-14T07:53:43;99457.6904296875;;;8.55;82.29
44531;BME280;30240;47.418;0.700;2023-03-14T07:56:09;99478.857421875;;;9.11;81.53
44531;BME280;30240;47.418;0.700;2023-03-14T07:58:33;99458.935546875;;;8.9;81.58
44531;BME280;30240;47.418;0.700;2023-03-14T08:00:58;99461.52954101562;;;8.88;81.74
44531;BME280;30240;47.418;0.700;2023-03-14T08:03:23;99488.97094726562;;;8.8;81.86
44531;BME280;30240;47.418;0.700;2023-03-14T08:05:49;99488.97094726562;;;8.8;81.86
44531;BME280;30240;47.418;0.700;2023-03-14T08:08:13;99479.66918945312;;;8.8;81.62
44531;BME280;30240;47.418;0.700;2023-03-14T08:10:38;99498.80981445312;;;8.84;81.87
44531;BME280;30240;47.418;0.700;2023-03-14T08:13:03;99501.94702148438;;;8.97;80.34
44531;BME280;30240;47.418;0.700;2023-03-14T08:15:29;99505.908203125;;;8.62;80.99
44531;BME280;30240;47.418;0.700;2023-03-14T08:17:54;99505.908203125;;;8.62;80.99
44531;BME280;30240;47.418;0.700;2023-03-14T08:20:20;99519.8486328125;;;8.81;81.38
44531;BME280;30240;47.418;0.700;2023-03-14T08:22:44;99533.1787109375;;;8.76;80.86
44531;BME280;30240;47.418;0.700;2023-03-14T08:25:09;99521.1669921875;;;8.92;80.39
44531;BME280;30240;47.418;0.700;2023-03-14T08:27:33;99545.95336914062;;;9.24;78.18
44531;BME280;30240;47.418;0.700;2023-03-14T08:29:58;99545.95336914062;;;9.24;78.18
44531;BME280;30240;47.418;0.700;2023-03-14T08:32:23;99493.59130859375;;;9.33;78.0
44531;BME280;30240;47.418;0.700;2023-03-14T08:34:49;99520.1904296875;;;9.24;77.87
44531;BME280;30240;47.418;0.700;2023-03-14T08:37:14;99495.62377929688;;;9.24;76.93
44531;BME280;30240;47.418;0.700;2023-03-14T08:39:38;99517.3095703125;;;9.5;76.96
44531;BME280;30240;47.418;0.700;2023-03-14T08:42:03;99517.3095703125;;;9.5;76.96
44531;BME280;30240;47.418;0.700;2023-03-14T08:44:28;99526.78833007812;;;8.96;77.35
44531;BME280;30240;47.418;0.700;2023-03-14T08:46:54;99562.9638671875;;;8.84;77.98
44531;BME280;30240;47.418;0.700;2023-03-14T08:49:18;99576.89819335938;;;8.83;77.85
44531;BME280;30240;47.418;0.700;2023-03-14T08:51:43;99579.4677734375;;;9.32;76.39
44531;BME280;30240;47.418;0.700;2023-03-14T08:54:09;99579.4677734375;;;9.32;76.39
44531;BME280;30240;47.418;0.700;2023-03-14T08:56:33;99579.13818359375;;;9.01;76.86
44531;BME280;30240;47.418;0.700;2023-03-14T08:58:58;99605.16357421875;;;9.11;76.63
44531;BME280;30240;47.418;0.700;2023-03-14T09:01:23;99630.78002929688;;;8.98;76.73
44531;BME280;30240;47.418;0.700;2023-03-14T09:03:48;99608.06884765625;;;9.03;75.72
44531;BME280;30240;47.418;0.700;2023-03-14T09:06:13;99608.06884765625;;;9.03;75.72
44531;BME280;30240;47.418;0.700;2023-03-14T09:08:38;99616.96166992188;;;9.14;75.41
44531;BME280;30240;47.418;0.700;2023-03-14T09:11:06;99625.67138671875;;;9.54;74.38
44531;BME280;30240;47.418;0.700;2023-03-14T09:13:29;99633.28247070312;;;9.64;74.29
44531;BME280;30240;47.418;0.700;2023-03-14T09:15:56;99642.10815429688;;;9.43;74.03
44531;BME280;30240;47.418;0.700;2023-03-14T09:18:19;99642.10815429688;;;9.43;74.03
44531;BME280;30240;47.418;0.700;2023-03-14T09:20:43;99629.82788085938;;;9.6;74.49
44531;BME280;30240;47.418;0.700;2023-03-14T09:23:08;99630.56030273438;;;9.21;74.77
44531;BME280;30240;47.418;0.700;2023-03-14T09:25:33;99647.216796875;;;9.05;74.4
44531;BME280;30240;47.418;0.700;2023-03-14T09:27:58;99630.31005859375;;;9.05;74.26
44531;BME280;30240;47.418;0.700;2023-03-14T09:30:23;99630.31005859375;;;9.05;74.26
44531;BME280;30240;47.418;0.700;2023-03-14T09:32:48;99678.9794921875;;;9.16;74.29
44531;BME280;30240;47.418;0.700;2023-03-14T09:35:13;99680.8349609375;;;9.07;73.1
44531;BME280;30240;47.418;0.700;2023-03-14T09:37:39;99693.701171875;;;9.19;73.42
44531;BME280;30240;47.418;0.700;2023-03-14T09:40:04;99708.67309570312;;;9.18;73.27
44531;BME280;30240;47.418;0.700;2023-03-14T09:42:29;99706.79931640625;;;9.26;72.9
44531;BME280;30240;47.418;0.700;2023-03-14T09:44:56;99706.79931640625;;;9.26;72.9
44531;BME280;30240;47.418;0.700;2023-03-14T09:47:19;99705.3955078125;;;9.21;73.31
44531;BME280;30240;47.418;0.700;2023-03-14T09:49:44;99718.74389648438;;;9.19;73.14
44531;BME280;30240;47.418;0.700;2023-03-14T09:52:13;99691.51000976562;;;9.31;72.74
44531;BME280;30240;47.418;0.700;2023-03-14T09:54:36;99732.48291015625;;;9.71;72.92
44531;BME280;30240;47.418;0.700;2023-03-14T09:56:59;99732.48291015625;;;9.71;72.92
44531;BME280;30240;47.418;0.700;2023-03-14T09:59:24;99738.33618164062;;;10.5;69.5
44531;BME280;30240;47.418;0.700;2023-03-14T10:01:49;99726.220703125;;;10.4;70.23
44531;BME280;30240;47.418;0.700;2023-03-14T10:04:15;99748.35815429688;;;10.79;69.45
44531;BME280;30240;47.418;0.700;2023-03-14T10:06:39;99756.74438476562;;;10.43;69.52
44531;BME280;30240;47.418;0.700;2023-03-14T10:09:04;99756.74438476562;;;10.43;69.52
44531;BME280;30240;47.418;0.700;2023-03-14T10:11:29;99769.92797851562;;;10.89;69.36
44531;BME280;30240;47.418;0.700;2023-03-14T10:14:03;99801.171875;;;10.09;71.35
44531;BME280;30240;47.418;0.700;2023-03-14T10:16:28;99809.73510742188;;;10.26;69.38
44531;BME280;30240;47.418;0.700;2023-03-14T10:18:45;99811.0595703125;;;10.33;70.1
44531;BME280;30240;47.418;0.700;2023-03-14T10:21:20;99811.0595703125;;;10.33;70.1
44531;BME280;30240;47.418;0.700;2023-03-14T10:23:34;99837.56103515625;;;10.6;69.02
44531;BME280;30240;47.418;0.700;2023-03-14T10:26:03;99817.32788085938;;;9.91;70.12
44531;BME280;30240;47.418;0.700;2023-03-14T10:28:26;99830.48706054688;;;10.06;70.11
44531;BME280;30240;47.418;0.700;2023-03-14T10:30:48;99820.14770507812;;;10.05;69.77
44531;BME280;30240;47.418;0.700;2023-03-14T10:33:20;99820.14770507812;;;10.05;69.77
44531;BME280;30240;47.418;0.700;2023-03-14T10:35:39;99837.48168945312;;;10.17;69.18
44531;BME280;30240;47.418;0.700;2023-03-14T10:38:04;99826.01318359375;;;10.17;69.6
44531;BME280;30240;47.418;0.700;2023-03-14T10:40:31;99834.93041992188;;;11.51;65.6
44531;BME280;30240;47.418;0.700;2023-03-14T10:42:54;99826.025390625;;;10.64;67.2
44531;BME280;30240;47.418;0.700;2023-03-14T10:45:31;99826.025390625;;;10.64;67.2
44531;BME280;30240;47.418;0.700;2023-03-14T10:47:48;99854.82788085938;;;10.82;69.42
44531;BME280;30240;47.418;0.700;2023-03-14T10:50:25;99852.03247070312;;;11.42;66.03
44531;BME280;30240;47.418;0.700;2023-03-14T10:52:34;99826.37329101562;;;11.68;66.0
44531;BME280;30240;47.418;0.700;2023-03-14T10:55:01;99826.4404296875;;;11.99;62.99
44531;BME280;30240;47.418;0.700;2023-03-14T10:57:24;99826.4404296875;;;11.99;62.99
44531;BME280;30240;47.418;0.700;2023-03-14T10:59:49;99817.59643554688;;;11.71;64.55
44531;BME280;30240;47.418;0.700;2023-03-14T11:02:29;99845.90454101562;;;11.62;64.13
44531;BME280;30240;47.418;0.700;2023-03-14T11:04:47;99837.68920898438;;;10.69;66.48
44531;BME280;30240;47.418;0.700;2023-03-14T11:04:55;99837.68920898438;;;10.69;66.48
44531;BME280;30240;47.418;0.700;2023-03-14T11:07:08;99852.978515625;;;11.26;65.08
44531;BME280;30240;47.418;0.700;2023-03-14T11:09:32;99875.57983398438;;;11.13;65.05
44531;BME280;30240;47.418;0.700;2023-03-14T11:11:56;99875.57983398438;;;11.13;65.05
44531;BME280;30240;47.418;0.700;2023-03-14T11:12:02;99875.57983398438;;;11.13;65.05
44531;BME280;30240;47.418;0.700;2023-03-14T11:14:24;99852.5146484375;;;10.85;62.46
44531;BME280;30240;47.418;0.700;2023-03-14T11:16:53;99866.56494140625;;;11.58;60.45
44531;BME280;30240;47.418;0.700;2023-03-14T11:19:34;99861.99340820312;;;10.99;63.34
44531;BME280;30240;47.418;0.700;2023-03-14T11:21:37;99877.71606445312;;;11.16;62.54
44531;BME280;30240;47.418;0.700;2023-03-14T11:21:43;99877.71606445312;;;11.16;62.54
44531;BME280;30240;47.418;0.700;2023-03-14T11:24:08;99877.71606445312;;;11.16;62.54